createdAt,value
2022-08-03T00:02:20.800Z,29.50
2022-08-03T00:04:49.425Z,29.50
2022-08-03T00:07:18.317Z,29.50
2022-08-03T00:09:47.913Z,29.40
2022-08-03T00:12:16.353Z,29.40
2022-08-03T00:14:45.363Z,29.40
2022-08-03T00:17:13.654Z,29.40
2022-08-03T00:19:41.888Z,29.40
2022-08-03T00:22:10.232Z,29.40
2022-08-03T00:24:38.454Z,29.40
2022-08-03T00:27:08.108Z,29.40
2022-08-03T00:29:57.583Z,29.40
2022-08-03T00:32:24.890Z,29.40
2022-08-03T00:34:58.318Z,29.30
2022-08-03T00:37:40.777Z,29.30
2022-08-03T00:40:12.842Z,29.30
2022-08-03T00:42:53.778Z,29.30
2022-08-03T00:45:24.674Z,29.30
2022-08-03T00:47:53.322Z,29.30
2022-08-03T00:50:23.970Z,29.30
2022-08-03T00:52:54.554Z,29.30
2022-08-03T00:55:22.828Z,29.30
2022-08-03T00:57:52.860Z,29.20
2022-08-03T01:00:22.885Z,29.20
2022-08-03T01:02:51.933Z,29.20
2022-08-03T01:05:20.857Z,29.20
2022-08-03T01:08:03.098Z,29.20
2022-08-03T01:10:41.002Z,29.20
2022-08-03T01:13:59.934Z,29.20
2022-08-03T01:16:36.750Z,29.20
2022-08-03T01:19:23.512Z,29.20
2022-08-03T01:22:00.784Z,29.20
2022-08-03T01:24:40.632Z,29.20
2022-08-03T01:27:13.772Z,29.20
2022-08-03T01:30:06.012Z,29.10
2022-08-03T01:32:53.615Z,29.10
2022-08-03T01:35:38.729Z,29.10
2022-08-03T01:38:11.849Z,29.10
2022-08-03T01:40:42.354Z,29.10
2022-08-03T01:43:14.511Z,29.10
2022-08-03T01:46:05.322Z,29.10
2022-08-03T01:48:34.345Z,29.10
2022-08-03T01:51:02.981Z,29.10
2022-08-03T01:53:34.792Z,29.10
2022-08-03T01:56:06.984Z,29.10
2022-08-03T01:58:37.161Z,29.10
2022-08-03T02:01:27.254Z,29.10
2022-08-03T02:04:18.015Z,29.00
2022-08-03T02:07:00.098Z,29.00
2022-08-03T02:09:31.057Z,29.00
2022-08-03T02:12:00.808Z,29.00
2022-08-03T02:14:29.547Z,29.00
2022-08-03T02:16:59.652Z,29.00
2022-08-03T02:19:32.577Z,29.00
2022-08-03T02:22:04.605Z,29.00
2022-08-03T02:24:33.601Z,29.00
2022-08-03T02:27:02.331Z,29.00
2022-08-03T02:29:39.928Z,29.00
2022-08-03T02:32:16.909Z,28.90
2022-08-03T02:34:49.946Z,28.90
2022-08-03T02:37:19.917Z,28.90
2022-08-03T02:39:52.049Z,28.90
2022-08-03T02:42:23.174Z,28.90
2022-08-03T02:44:54.489Z,28.90
2022-08-03T02:47:24.776Z,28.90
2022-08-03T02:49:55.497Z,28.90
2022-08-03T02:52:26.656Z,28.90
2022-08-03T02:54:58.141Z,28.90
2022-08-03T02:57:29.296Z,28.90
2022-08-03T02:59:58.945Z,28.90
2022-08-03T03:02:30.180Z,28.90
2022-08-03T03:05:54.594Z,28.80
2022-08-03T03:07:51.748Z,28.80
2022-08-03T03:10:23.133Z,28.80
2022-08-03T03:12:53.484Z,28.80
2022-08-03T03:15:21.971Z,28.80
2022-08-03T03:17:53.514Z,28.80
2022-08-03T03:20:29.498Z,28.80
2022-08-03T03:23:01.148Z,28.80
2022-08-03T03:25:31.774Z,28.80
2022-08-03T03:28:00.687Z,28.70
2022-08-03T03:30:30.000Z,28.70
2022-08-03T03:33:00.669Z,28.80
2022-08-03T03:35:29.331Z,28.70
2022-08-03T03:37:58.473Z,28.70
2022-08-03T03:40:26.794Z,28.70
2022-08-03T03:42:54.986Z,28.70
2022-08-03T03:45:24.523Z,28.70
2022-08-03T03:47:52.797Z,28.70
2022-08-03T03:50:24.020Z,28.70
2022-08-03T03:52:52.229Z,28.70
2022-08-03T03:55:20.786Z,28.70
2022-08-03T03:57:48.972Z,28.70
2022-08-03T04:00:19.488Z,28.70
2022-08-03T04:02:47.932Z,28.70
2022-08-03T04:05:34.037Z,28.70
2022-08-03T04:08:24.999Z,28.70
2022-08-03T04:11:03.908Z,28.70
2022-08-03T04:13:36.366Z,28.70
2022-08-03T04:16:06.329Z,28.60
2022-08-03T04:18:37.927Z,28.60
2022-08-03T04:21:30.755Z,28.60
2022-08-03T04:24:02.814Z,28.60
2022-08-03T04:26:34.815Z,28.60
2022-08-03T04:29:03.844Z,28.60
2022-08-03T04:31:40.586Z,28.60
2022-08-03T04:34:09.058Z,28.60
2022-08-03T04:36:45.315Z,28.60
2022-08-03T04:39:20.861Z,28.60
2022-08-03T04:42:02.189Z,28.60
2022-08-03T04:44:40.409Z,28.60
2022-08-03T04:47:08.693Z,28.60
2022-08-03T04:49:38.629Z,28.60
2022-08-03T04:52:10.143Z,28.60
2022-08-03T04:54:50.066Z,28.60
2022-08-03T04:57:22.145Z,28.60
2022-08-03T04:59:58.242Z,28.60
2022-08-03T05:02:30.273Z,28.60
2022-08-03T05:04:58.684Z,28.60
2022-08-03T05:07:35.959Z,28.60
2022-08-03T05:10:14.765Z,28.60
2022-08-03T05:12:44.160Z,28.60
2022-08-03T05:15:12.980Z,28.60
2022-08-03T05:17:41.780Z,28.60
2022-08-03T05:20:11.464Z,28.60
2022-08-03T05:22:39.651Z,28.60
2022-08-03T05:25:09.730Z,28.60
2022-08-03T05:27:45.597Z,28.60
2022-08-03T05:30:29.744Z,28.60
2022-08-03T05:33:01.589Z,28.60
2022-08-03T05:36:00.709Z,28.70
2022-08-03T05:38:24.146Z,28.70
2022-08-03T05:41:21.374Z,28.70
2022-08-03T05:44:12.742Z,28.70
2022-08-03T05:46:40.944Z,28.70
2022-08-03T05:49:09.267Z,28.70
2022-08-03T05:51:37.503Z,28.70
2022-08-03T05:54:05.832Z,28.70
2022-08-03T05:56:35.458Z,28.70
2022-08-03T05:59:22.479Z,28.70
2022-08-03T06:01:52.222Z,28.70
2022-08-03T06:04:20.694Z,28.70
2022-08-03T06:06:50.703Z,28.70
2022-08-03T06:09:19.044Z,28.70
2022-08-03T06:11:48.609Z,28.70
2022-08-03T06:14:16.857Z,28.70
2022-08-03T06:16:45.043Z,28.70
2022-08-03T06:19:13.261Z,28.80
2022-08-03T06:21:41.398Z,28.80
2022-08-03T06:24:09.935Z,28.80
2022-08-03T06:26:38.133Z,28.80
2022-08-03T06:29:08.643Z,28.80
2022-08-03T06:31:38.184Z,28.80
2022-08-03T06:34:34.393Z,28.80
2022-08-03T06:37:01.412Z,28.80
2022-08-03T06:39:30.495Z,28.80
2022-08-03T06:41:59.115Z,28.80
2022-08-03T06:44:28.767Z,28.80
2022-08-03T06:46:57.050Z,28.80
2022-08-03T06:49:25.341Z,28.90
2022-08-03T06:52:05.059Z,28.90
2022-08-03T06:54:37.820Z,28.90
2022-08-03T06:57:08.195Z,28.90
2022-08-03T07:00:08.894Z,28.90
2022-08-03T07:02:26.825Z,29.00
2022-08-03T07:04:57.193Z,29.00
2022-08-03T07:07:25.554Z,29.00
2022-08-03T07:09:57.798Z,29.00
2022-08-03T07:12:27.836Z,29.10
2022-08-03T07:15:01.149Z,29.10
2022-08-03T07:17:31.250Z,29.10
2022-08-03T07:19:59.784Z,29.10
2022-08-03T07:22:28.341Z,29.10
2022-08-03T07:24:56.662Z,29.10
2022-08-03T07:27:26.910Z,29.10
2022-08-03T07:29:55.847Z,29.20
2022-08-03T07:32:25.675Z,29.20
2022-08-03T07:34:58.320Z,29.20
2022-08-03T07:37:30.064Z,29.20
2022-08-03T07:39:58.584Z,29.20
2022-08-03T07:42:27.264Z,29.20
2022-08-03T07:44:55.523Z,29.30
2022-08-03T07:47:35.223Z,29.30
2022-08-03T07:50:05.503Z,29.30
2022-08-03T07:52:49.387Z,29.30
2022-08-03T07:55:18.413Z,29.30
2022-08-03T07:57:46.718Z,29.30
2022-08-03T08:00:17.734Z,29.30
2022-08-03T08:02:47.567Z,29.40
2022-08-03T08:05:15.793Z,29.40
2022-08-03T08:07:44.008Z,29.40
2022-08-03T08:10:19.414Z,29.40
2022-08-03T08:12:48.218Z,29.40
2022-08-03T08:15:16.473Z,29.40
2022-08-03T08:17:48.581Z,29.40
2022-08-03T08:20:27.759Z,29.50
2022-08-03T08:22:58.210Z,29.50
2022-08-03T08:25:26.692Z,29.50
2022-08-03T08:28:22.308Z,29.50
2022-08-03T08:30:44.198Z,29.50
2022-08-03T08:33:23.499Z,29.50
2022-08-03T08:35:54.475Z,29.60
2022-08-03T08:38:23.430Z,29.60
2022-08-03T08:40:51.999Z,29.60
2022-08-03T08:43:20.228Z,29.60
2022-08-03T08:45:51.666Z,29.60
2022-08-03T08:48:26.992Z,29.60
2022-08-03T08:50:56.769Z,29.60
2022-08-03T08:53:29.103Z,29.60
2022-08-03T08:56:01.495Z,29.60
2022-08-03T08:58:31.604Z,29.60
2022-08-03T09:01:00.198Z,29.60
2022-08-03T09:03:31.050Z,29.60
2022-08-03T09:06:02.278Z,29.60
2022-08-03T09:08:31.934Z,29.60
2022-08-03T09:11:00.577Z,29.60
2022-08-03T09:13:29.242Z,29.60
2022-08-03T09:16:20.315Z,29.60
2022-08-03T09:18:52.177Z,29.60
2022-08-03T09:21:32.132Z,29.60
2022-08-03T09:24:05.751Z,29.60
2022-08-03T09:26:36.195Z,29.60
2022-08-03T09:29:13.165Z,29.60
2022-08-03T09:31:45.684Z,29.60
2022-08-03T09:34:17.264Z,29.60
2022-08-03T09:36:47.078Z,29.60
2022-08-03T09:39:16.786Z,29.60
2022-08-03T09:41:47.177Z,29.60
2022-08-03T09:44:25.381Z,29.60
2022-08-03T09:46:57.181Z,29.60
2022-08-03T09:49:26.918Z,29.60
2022-08-03T09:52:33.607Z,29.60
2022-08-03T09:54:44.527Z,29.60
2022-08-03T09:57:24.259Z,29.70
2022-08-03T10:00:03.266Z,29.70
2022-08-03T10:02:42.262Z,29.70
2022-08-03T10:05:17.742Z,29.70
2022-08-03T10:07:50.916Z,29.70
2022-08-03T10:10:29.594Z,29.70
2022-08-03T10:13:02.218Z,29.70
2022-08-03T10:16:22.879Z,29.70
2022-08-03T10:18:18.892Z,29.70
2022-08-03T10:20:53.222Z,29.70
2022-08-03T10:27:23.239Z,29.70
2022-08-03T10:29:54.544Z,29.70
2022-08-03T10:32:49.552Z,29.70
2022-08-03T10:35:21.545Z,29.70
2022-08-03T10:37:59.238Z,29.70
2022-08-03T10:43:22.912Z,29.70
2022-08-03T10:45:52.255Z,29.70
2022-08-03T10:48:21.706Z,29.80
2022-08-03T10:50:51.638Z,29.80
2022-08-03T10:53:36.621Z,29.80
2022-08-03T10:56:35.441Z,29.80
2022-08-03T10:59:10.593Z,29.80
2022-08-03T11:02:00.153Z,29.80
2022-08-03T11:04:30.210Z,29.80
2022-08-03T11:07:21.919Z,29.90
2022-08-03T11:09:53.054Z,29.90
2022-08-03T11:12:29.993Z,29.90
2022-08-03T11:15:01.754Z,29.90
2022-08-03T11:17:30.136Z,29.90
2022-08-03T11:19:58.814Z,29.90
2022-08-03T11:22:47.588Z,29.90
2022-08-03T11:25:54.403Z,29.80
2022-08-03T11:28:26.415Z,29.90
2022-08-03T11:30:55.121Z,29.90
2022-08-03T11:33:33.084Z,29.90
2022-08-03T11:36:05.008Z,29.90
2022-08-03T11:38:33.264Z,30.00
2022-08-03T11:41:04.981Z,30.10
2022-08-03T11:43:46.772Z,30.10
2022-08-03T11:46:28.712Z,30.20
2022-08-03T11:49:10.393Z,30.30
2022-08-03T11:51:40.347Z,30.40
2022-08-03T11:54:09.009Z,30.50
2022-08-03T11:56:49.617Z,30.60
2022-08-03T11:59:22.021Z,30.70
2022-08-03T12:01:51.152Z,30.80
2022-08-03T12:04:19.434Z,30.90
2022-08-03T12:07:03.627Z,31.00
2022-08-03T12:09:32.591Z,31.20
2022-08-03T12:12:02.219Z,31.30
2022-08-03T12:14:49.496Z,31.50
2022-08-03T12:17:19.557Z,31.70
2022-08-03T12:19:47.956Z,31.90
2022-08-03T12:22:17.182Z,32.10
2022-08-03T12:24:47.193Z,32.30
2022-08-03T12:27:26.150Z,32.50
2022-08-03T12:29:58.526Z,32.80
2022-08-03T12:32:28.358Z,33.10
2022-08-03T12:35:01.319Z,33.40
2022-08-03T12:37:30.647Z,33.50
2022-08-03T12:40:06.760Z,33.60
2022-08-03T12:42:41.519Z,33.60
2022-08-03T12:45:26.969Z,33.60
2022-08-03T12:47:58.906Z,33.60
2022-08-03T12:50:32.501Z,33.60
2022-08-03T12:53:01.990Z,33.60
2022-08-03T12:55:57.623Z,33.60
2022-08-03T12:58:35.469Z,33.60
2022-08-03T13:01:09.479Z,33.60
2022-08-03T13:03:49.555Z,33.60
2022-08-03T13:06:19.935Z,33.60
2022-08-03T13:08:49.004Z,33.50
2022-08-03T13:11:50.568Z,33.40
2022-08-03T13:14:19.801Z,33.40
2022-08-03T13:16:49.557Z,33.30
2022-08-03T13:19:17.975Z,33.30
2022-08-03T13:22:01.659Z,33.40
2022-08-03T13:24:33.816Z,33.40
2022-08-03T13:27:22.432Z,33.30
2022-08-03T13:29:52.912Z,33.00
2022-08-03T13:32:21.451Z,32.40
2022-08-03T13:34:50.154Z,32.00
2022-08-03T13:37:18.355Z,31.70
2022-08-03T13:39:58.024Z,31.50
2022-08-03T13:42:28.938Z,31.20
2022-08-03T13:44:58.938Z,31.00
2022-08-03T13:47:27.678Z,30.90
2022-08-03T13:50:01.119Z,30.80
2022-08-03T13:52:32.629Z,30.70
2022-08-03T13:55:00.961Z,30.60
2022-08-03T13:58:04.319Z,30.50
2022-08-03T14:00:27.007Z,30.50
2022-08-03T14:03:04.011Z,30.50
2022-08-03T14:05:35.780Z,30.50
2022-08-03T14:08:05.952Z,30.50
2022-08-03T14:10:35.994Z,30.50
2022-08-03T14:13:04.514Z,30.50
2022-08-03T14:15:37.702Z,30.50
2022-08-03T14:18:06.522Z,30.50
2022-08-03T14:20:38.809Z,30.60
2022-08-03T14:23:15.887Z,30.50
2022-08-03T14:25:51.440Z,30.40
2022-08-03T14:28:21.270Z,30.30
2022-08-03T14:30:51.109Z,30.20
2022-08-03T14:33:19.353Z,30.30
2022-08-03T14:35:47.623Z,30.40
2022-08-03T14:38:16.094Z,30.40
2022-08-03T14:40:44.684Z,30.50
2022-08-03T14:43:12.944Z,30.50
2022-08-03T14:45:41.258Z,30.60
2022-08-03T14:50:28.498Z,30.60
2022-08-03T14:51:00.643Z,30.60
2022-08-03T14:53:30.178Z,30.60
2022-08-03T14:55:58.470Z,30.60
2022-08-03T14:58:27.204Z,30.60
2022-08-03T15:00:56.604Z,30.70
2022-08-03T15:03:26.380Z,30.70
2022-08-03T15:05:56.186Z,30.70
2022-08-03T15:08:26.097Z,30.80
2022-08-03T15:10:54.841Z,30.80
2022-08-03T15:13:23.460Z,30.80
2022-08-03T15:15:52.238Z,30.80
2022-08-03T15:18:21.267Z,30.80
2022-08-03T15:20:51.016Z,30.90
2022-08-03T15:23:19.704Z,30.90
2022-08-03T15:26:29.293Z,30.90
2022-08-03T15:28:37.760Z,30.90
2022-08-03T15:31:09.006Z,30.90
2022-08-03T15:33:38.020Z,30.90
2022-08-03T15:36:10.849Z,31.00
2022-08-03T15:38:39.004Z,31.00
2022-08-03T15:41:08.033Z,31.00
2022-08-03T15:43:41.986Z,31.00
2022-08-03T15:46:31.512Z,31.00
2022-08-03T15:48:59.682Z,31.10
2022-08-03T15:51:29.279Z,31.00
2022-08-03T15:53:57.495Z,31.10
2022-08-03T15:56:27.172Z,31.10
2022-08-03T15:59:10.512Z,31.10
2022-08-03T16:01:42.083Z,31.10
2022-08-03T16:04:10.505Z,31.10
2022-08-03T16:06:40.094Z,31.10
2022-08-03T16:09:23.038Z,31.20
2022-08-03T16:11:58.523Z,31.20
2022-08-03T16:14:32.444Z,31.20
2022-08-03T16:17:06.484Z,31.20
2022-08-03T16:19:35.630Z,31.20
2022-08-03T16:22:05.558Z,31.20
2022-08-03T16:24:35.089Z,31.20
2022-08-03T16:27:06.061Z,31.20
2022-08-03T16:29:43.844Z,31.20
2022-08-03T16:32:12.148Z,31.10
2022-08-03T16:34:40.789Z,31.20
2022-08-03T16:37:37.001Z,31.10
2022-08-03T16:39:59.824Z,31.10
2022-08-03T16:42:28.020Z,31.10
2022-08-03T16:44:56.189Z,31.10
2022-08-03T16:47:24.461Z,31.10
2022-08-03T16:49:55.710Z,31.10
2022-08-03T16:52:26.598Z,31.20
2022-08-03T16:54:55.590Z,31.20
2022-08-03T16:57:55.763Z,31.20
2022-08-03T17:00:33.720Z,31.10
2022-08-03T17:03:18.602Z,31.10
2022-08-03T17:05:50.018Z,31.10
2022-08-03T17:08:27.128Z,31.10
2022-08-03T17:10:58.931Z,31.10
2022-08-03T17:13:27.689Z,31.10
2022-08-03T17:16:10.249Z,31.10
2022-08-03T17:18:49.507Z,31.10
2022-08-03T17:21:23.777Z,31.10
2022-08-03T17:23:58.374Z,31.10
2022-08-03T17:26:30.284Z,31.10
2022-08-03T17:29:11.359Z,31.10
2022-08-03T17:31:48.715Z,31.10
2022-08-03T17:34:18.727Z,31.10
2022-08-03T17:37:04.794Z,31.10
2022-08-03T17:39:57.649Z,31.10
2022-08-03T17:42:30.364Z,31.10
2022-08-03T17:45:08.712Z,31.10
2022-08-03T17:47:44.124Z,31.00
2022-08-03T17:50:24.607Z,31.00
2022-08-03T17:53:07.096Z,31.00
2022-08-03T17:55:58.969Z,31.00
2022-08-03T17:58:43.645Z,31.00
2022-08-03T18:01:59.273Z,30.90
2022-08-03T18:04:33.701Z,30.90
2022-08-03T18:07:10.975Z,30.90
2022-08-03T18:10:05.184Z,30.90
2022-08-03T18:12:44.894Z,30.90
2022-08-03T18:15:21.203Z,30.80
2022-08-03T18:18:10.964Z,30.80
2022-08-03T18:20:42.059Z,30.80
2022-08-03T18:23:25.028Z,30.70
2022-08-03T18:26:02.497Z,30.70
2022-08-03T18:28:36.578Z,30.70
2022-08-03T18:31:11.654Z,30.70
2022-08-03T18:34:16.916Z,30.70
2022-08-03T18:36:31.948Z,30.70
2022-08-03T18:39:03.210Z,30.70
2022-08-03T18:41:34.715Z,30.70
2022-08-03T18:44:09.583Z,30.60
2022-08-03T18:47:08.107Z,30.60
2022-08-03T18:49:54.097Z,30.60
2022-08-03T18:52:28.107Z,30.60
2022-08-03T18:55:09.355Z,30.60
2022-08-03T18:57:53.352Z,30.50
2022-08-03T19:00:24.279Z,30.50
2022-08-03T19:03:09.191Z,30.40
2022-08-03T19:05:53.709Z,30.40
2022-08-03T19:08:37.084Z,30.40
2022-08-03T19:11:12.939Z,30.40
2022-08-03T19:13:50.845Z,30.40
2022-08-03T19:16:32.132Z,30.40
2022-08-03T19:19:03.074Z,30.40
2022-08-03T19:21:32.210Z,30.50
2022-08-03T19:24:05.583Z,30.50
2022-08-03T19:26:39.566Z,30.40
2022-08-03T19:29:11.380Z,30.40
2022-08-03T19:31:54.429Z,30.40
2022-08-03T19:34:28.897Z,30.30
2022-08-03T19:36:58.435Z,30.30
2022-08-03T19:39:27.196Z,30.20
2022-08-03T19:42:08.082Z,30.20
2022-08-03T19:44:40.955Z,30.10
2022-08-03T19:47:16.983Z,30.10
2022-08-03T19:50:05.379Z,30.10
2022-08-03T19:52:38.641Z,30.00
2022-08-03T19:55:12.238Z,30.00
2022-08-03T19:57:44.071Z,29.90
2022-08-03T20:00:18.580Z,29.90
2022-08-03T20:02:50.831Z,29.90
2022-08-03T20:05:19.981Z,29.90
2022-08-03T20:07:48.763Z,30.00
2022-08-03T20:10:18.120Z,30.00
2022-08-03T20:12:47.052Z,30.00
2022-08-03T20:15:22.474Z,30.10
2022-08-03T20:18:01.561Z,30.10
2022-08-03T20:20:32.666Z,30.10
2022-08-03T20:23:06.990Z,30.10
2022-08-03T20:25:59.117Z,30.10
2022-08-03T20:28:32.387Z,30.10
2022-08-03T20:31:01.795Z,30.10
2022-08-03T20:33:46.383Z,30.00
2022-08-03T20:36:18.439Z,29.80
2022-08-03T20:38:48.253Z,29.50
2022-08-03T20:41:17.370Z,29.40
2022-08-03T20:43:45.938Z,29.80
2022-08-03T20:46:30.833Z,30.00
2022-08-03T20:49:06.608Z,30.00
2022-08-03T20:51:50.448Z,29.90
2022-08-03T20:54:29.902Z,29.80
2022-08-03T20:57:00.477Z,29.70
2022-08-03T20:59:38.490Z,29.70
2022-08-03T21:02:19.672Z,29.70
2022-08-03T21:05:03.749Z,29.50
2022-08-03T21:07:45.608Z,29.30
2022-08-03T21:10:31.668Z,29.10
2022-08-03T21:13:15.925Z,28.80
2022-08-03T21:16:01.331Z,28.60
2022-08-03T21:18:42.271Z,28.70
2022-08-03T21:21:16.663Z,28.80
2022-08-03T21:23:48.250Z,28.80
2022-08-03T21:26:18.914Z,28.50
2022-08-03T21:28:47.740Z,28.40
2022-08-03T21:31:24.589Z,28.40
2022-08-03T21:33:56.720Z,28.40
2022-08-03T21:36:27.722Z,28.30
2022-08-03T21:38:57.429Z,28.20
2022-08-03T21:41:27.038Z,28.20
2022-08-03T21:43:55.205Z,27.80
2022-08-03T21:46:24.172Z,27.80
2022-08-03T21:50:05.406Z,27.80
2022-08-03T21:51:50.230Z,27.90
2022-08-03T21:54:21.086Z,28.10
2022-08-03T21:56:52.144Z,28.30
2022-08-03T21:59:21.695Z,28.40
2022-08-03T22:01:53.579Z,28.50
2022-08-03T22:04:50.178Z,28.30
2022-08-03T22:07:13.537Z,28.10
2022-08-03T22:09:51.021Z,27.90
2022-08-03T22:12:23.694Z,27.60
2022-08-03T22:15:00.016Z,27.40
2022-08-03T22:17:53.601Z,27.60
2022-08-03T22:20:18.114Z,27.70
2022-08-03T22:22:54.943Z,27.80
2022-08-03T22:25:27.281Z,27.80
2022-08-03T22:27:56.034Z,27.60
2022-08-03T22:30:24.275Z,27.70
2022-08-03T22:32:56.082Z,27.80
2022-08-03T22:35:26.827Z,27.80
2022-08-03T22:37:59.278Z,27.70
2022-08-03T22:40:27.981Z,27.50
2022-08-03T22:42:56.581Z,27.50
2022-08-03T22:46:09.831Z,27.40
2022-08-03T22:48:17.372Z,27.40
2022-08-03T22:50:46.673Z,27.30
2022-08-03T22:53:20.310Z,27.20
2022-08-03T22:55:51.436Z,27.30
2022-08-03T22:58:20.885Z,27.20
2022-08-03T23:00:54.223Z,27.10
2022-08-03T23:03:25.441Z,27.00
2022-08-03T23:06:14.578Z,26.90
2022-08-03T23:08:48.392Z,26.70
2022-08-03T23:11:18.767Z,26.50
2022-08-03T23:13:48.403Z,26.50
2022-08-03T23:16:28.977Z,26.70
2022-08-03T23:19:17.223Z,26.90
2022-08-03T23:22:00.087Z,27.10
2022-08-03T23:24:34.367Z,27.20
2022-08-03T23:27:04.421Z,27.20
2022-08-03T23:29:34.824Z,26.90
2022-08-03T23:32:03.422Z,26.90
2022-08-03T23:34:50.558Z,27.00
2022-08-03T23:37:20.129Z,26.90
2022-08-03T23:39:50.326Z,26.80
2022-08-03T23:42:20.659Z,26.70
2022-08-03T23:44:54.056Z,26.60
2022-08-03T23:47:22.438Z,26.50
2022-08-03T23:49:51.080Z,26.50
2022-08-03T23:52:30.171Z,26.30
2022-08-03T23:55:14.244Z,26.30
2022-08-03T23:57:53.776Z,26.40
